createdAt,value
2022-10-05T00:00:00.358Z,10.80
2022-10-05T00:05:22.205Z,10.79
2022-10-05T00:10:25.032Z,10.77
2022-10-05T00:15:29.350Z,10.76
2022-10-05T00:20:31.989Z,10.75
2022-10-05T00:25:34.741Z,10.79
2022-10-05T00:30:37.961Z,10.85
2022-10-05T00:35:40.624Z,10.85
2022-10-05T00:41:05.598Z,10.83
2022-10-05T00:46:27.141Z,10.86
2022-10-05T00:51:38.892Z,10.91
2022-10-05T00:57:09.079Z,10.89
2022-10-05T01:02:39.749Z,10.84
2022-10-05T01:08:03.304Z,10.78
2022-10-05T01:13:23.980Z,10.75
2022-10-05T01:18:56.837Z,10.76
2022-10-05T01:24:36.428Z,10.72
2022-10-05T01:29:59.470Z,10.69
2022-10-05T01:35:14.122Z,10.64
2022-10-05T01:40:33.961Z,10.63
2022-10-05T01:45:39.617Z,10.62
2022-10-05T01:51:09.453Z,10.63
2022-10-05T01:56:24.037Z,10.65
2022-10-05T02:01:43.336Z,10.67
2022-10-05T02:06:50.235Z,10.71
2022-10-05T02:12:01.104Z,10.76
2022-10-05T02:17:26.840Z,10.82
2022-10-05T02:22:37.249Z,10.84
2022-10-05T02:27:54.109Z,10.81
2022-10-05T02:33:02.793Z,10.81
2022-10-05T02:38:19.835Z,10.79
2022-10-05T02:43:44.435Z,10.77
2022-10-05T02:49:13.069Z,10.71
2022-10-05T02:54:41.678Z,10.65
2022-10-05T03:00:11.591Z,10.63
2022-10-05T03:05:34.080Z,10.66
2022-10-05T03:10:59.763Z,10.66
2022-10-05T03:16:14.536Z,10.64
2022-10-05T03:21:23.210Z,10.67
2022-10-05T03:26:32.810Z,10.65
2022-10-05T03:31:49.225Z,10.62
2022-10-05T03:36:51.888Z,10.58
2022-10-05T03:42:05.599Z,10.56
2022-10-05T03:47:47.875Z,10.55
2022-10-05T03:52:54.564Z,10.53
2022-10-05T03:57:59.824Z,10.54
2022-10-05T04:03:19.037Z,10.58
2022-10-05T04:08:47.613Z,10.62
2022-10-05T04:13:56.243Z,10.63
2022-10-05T04:19:20.390Z,10.62
2022-10-05T04:24:42.303Z,10.62
2022-10-05T04:30:05.417Z,10.64
2022-10-05T04:35:40.670Z,10.61
2022-10-05T04:41:14.071Z,10.60
2022-10-05T04:46:37.935Z,10.61
2022-10-05T04:52:02.667Z,10.66
2022-10-05T04:57:18.066Z,10.70
2022-10-05T05:02:24.555Z,10.71
2022-10-05T05:08:02.099Z,10.73
2022-10-05T05:13:25.713Z,10.75
2022-10-05T05:18:42.590Z,10.78
2022-10-05T05:24:04.054Z,10.82
2022-10-05T05:29:28.733Z,10.91
2022-10-05T05:34:55.403Z,11.00
2022-10-05T05:40:07.319Z,11.05
2022-10-05T05:45:19.030Z,11.05
2022-10-05T05:50:43.341Z,11.08
2022-10-05T05:55:50.246Z,11.13
2022-10-05T06:01:05.427Z,11.19
2022-10-05T06:06:15.740Z,11.25
2022-10-05T06:11:27.658Z,11.33
2022-10-05T06:16:43.041Z,11.40
2022-10-05T06:21:57.015Z,11.46
2022-10-05T06:27:16.473Z,11.53
2022-10-05T06:32:31.437Z,11.55
2022-10-05T06:37:52.992Z,11.54
2022-10-05T06:43:17.108Z,11.56
2022-10-05T06:48:46.513Z,11.59
2022-10-05T06:53:52.111Z,11.64
2022-10-05T06:59:22.857Z,11.76
2022-10-05T07:04:44.115Z,11.87
2022-10-05T07:10:32.786Z,12.07
2022-10-05T07:15:52.869Z,12.24
2022-10-05T07:21:16.811Z,12.39
2022-10-05T07:26:34.388Z,12.51
2022-10-05T07:31:56.867Z,12.63
2022-10-05T07:37:35.703Z,12.68
2022-10-05T07:42:52.307Z,12.71
2022-10-05T07:48:05.967Z,12.81
2022-10-05T07:53:45.225Z,12.97
2022-10-05T07:58:56.887Z,13.11
2022-10-05T08:04:41.809Z,13.28
2022-10-05T08:09:49.122Z,13.45
2022-10-05T08:15:12.059Z,13.54
2022-10-05T08:20:46.204Z,13.60
2022-10-05T08:25:51.982Z,13.67
2022-10-05T08:31:02.134Z,13.73
2022-10-05T08:36:16.064Z,13.89
2022-10-05T08:41:43.718Z,14.10
2022-10-05T08:47:16.310Z,14.13
2022-10-05T08:52:31.634Z,14.09
2022-10-05T08:58:12.318Z,13.97
2022-10-05T09:03:28.979Z,13.85
2022-10-05T09:09:16.616Z,13.78
2022-10-05T09:15:07.157Z,13.79
2022-10-05T09:20:36.585Z,13.82
2022-10-05T09:25:59.560Z,13.84
2022-10-05T09:31:10.167Z,13.89
2022-10-05T09:36:18.975Z,13.96
2022-10-05T09:41:57.012Z,14.02
2022-10-05T09:47:08.339Z,14.18
2022-10-05T09:52:42.222Z,14.39
2022-10-05T09:58:03.773Z,14.60
2022-10-05T10:03:09.689Z,14.77
2022-10-05T10:08:44.807Z,14.93
2022-10-05T10:14:12.564Z,15.20
2022-10-05T10:19:52.248Z,15.53
2022-10-05T10:25:27.519Z,15.82
2022-10-05T10:30:42.649Z,16.06
2022-10-05T10:36:19.349Z,16.15
2022-10-05T10:41:39.355Z,16.44
2022-10-05T10:47:10.596Z,16.55
2022-10-05T10:52:45.626Z,16.56
2022-10-05T10:57:50.974Z,16.41
2022-10-05T11:03:33.724Z,16.38
2022-10-05T11:09:11.000Z,16.67
2022-10-05T11:14:49.523Z,16.99
2022-10-05T11:20:05.105Z,16.90
2022-10-05T11:25:27.724Z,16.75
2022-10-05T11:30:59.771Z,16.69
2022-10-05T11:36:35.316Z,16.99
2022-10-05T11:41:59.600Z,17.20
2022-10-05T11:47:24.007Z,17.39
2022-10-05T11:52:37.881Z,17.31
2022-10-05T11:57:54.906Z,17.54
2022-10-05T12:03:15.770Z,17.59
2022-10-05T12:08:44.611Z,18.17
2022-10-05T12:14:00.777Z,18.28
2022-10-05T12:19:14.922Z,18.32
2022-10-05T12:24:35.951Z,18.21
2022-10-05T12:30:01.653Z,18.01
2022-10-05T12:35:43.645Z,18.08
2022-10-05T12:40:56.755Z,18.14
2022-10-05T12:46:19.684Z,18.27
2022-10-05T12:51:51.505Z,18.19
2022-10-05T12:57:29.852Z,17.90
2022-10-05T13:02:44.183Z,17.55
2022-10-05T13:08:18.003Z,17.33
2022-10-05T13:13:26.615Z,17.38
2022-10-05T13:18:56.116Z,17.42
2022-10-05T13:24:04.528Z,17.40
2022-10-05T13:29:25.983Z,17.37
2022-10-05T13:34:53.502Z,17.27
2022-10-05T13:40:14.991Z,17.20
2022-10-05T13:45:25.060Z,17.13
2022-10-05T13:50:35.750Z,17.10
2022-10-05T13:55:38.435Z,17.02
2022-10-05T14:00:50.066Z,16.94
2022-10-05T14:05:57.902Z,16.89
2022-10-05T14:11:21.320Z,16.84
2022-10-05T14:16:26.238Z,16.82
2022-10-05T14:21:31.672Z,16.75
2022-10-05T14:26:36.132Z,16.67
2022-10-05T14:31:49.563Z,16.65
2022-10-05T14:37:19.927Z,16.71
2022-10-05T14:42:25.092Z,16.83
2022-10-05T14:47:31.441Z,16.95
2022-10-05T14:52:34.872Z,16.99
2022-10-05T14:58:07.773Z,16.93
2022-10-05T15:03:38.292Z,16.74
2022-10-05T15:08:53.050Z,16.56
2022-10-05T15:13:56.624Z,16.36
2022-10-05T15:19:16.127Z,16.21
2022-10-05T15:24:26.462Z,16.08
2022-10-05T15:29:48.522Z,16.00
2022-10-05T15:35:08.291Z,15.94
2022-10-05T15:40:29.504Z,15.88
2022-10-05T15:45:57.187Z,15.77
2022-10-05T15:51:15.533Z,15.64
2022-10-05T15:56:38.708Z,15.50
2022-10-05T16:01:52.971Z,15.33
2022-10-05T16:07:19.676Z,15.21
2022-10-05T16:12:50.075Z,15.10
2022-10-05T16:18:10.676Z,15.02
2022-10-05T16:23:35.293Z,14.92
2022-10-05T16:28:54.401Z,14.83
2022-10-05T16:34:31.611Z,14.71
2022-10-05T16:39:50.235Z,14.59
2022-10-05T16:45:13.677Z,14.53
2022-10-05T16:50:44.387Z,14.48
2022-10-05T16:55:51.934Z,14.43
2022-10-05T17:01:29.777Z,14.36
2022-10-05T17:07:03.313Z,14.28
2022-10-05T17:12:05.976Z,14.24
2022-10-05T17:17:21.749Z,14.23
2022-10-05T17:22:30.325Z,14.24
2022-10-05T17:28:15.216Z,14.21
2022-10-05T17:33:22.684Z,14.15
2022-10-05T17:38:31.150Z,14.10
2022-10-05T17:43:34.581Z,14.09
2022-10-05T17:48:37.190Z,14.08
2022-10-05T17:54:01.191Z,14.07
2022-10-05T17:59:06.718Z,14.04
2022-10-05T18:04:12.314Z,14.00
2022-10-05T18:09:20.434Z,13.95
2022-10-05T18:14:24.933Z,13.93
2022-10-05T18:19:32.347Z,13.92
2022-10-05T18:25:09.065Z,13.92
2022-10-05T18:30:22.515Z,13.88
2022-10-05T18:35:32.713Z,13.85
2022-10-05T18:40:56.958Z,13.84
2022-10-05T18:46:11.507Z,13.83
2022-10-05T18:51:20.148Z,13.81
2022-10-05T18:56:43.880Z,13.77
2022-10-05T19:02:05.781Z,13.72
2022-10-05T19:07:45.562Z,13.72
2022-10-05T19:12:56.699Z,13.73
2022-10-05T19:18:25.664Z,13.74
2022-10-05T19:23:55.358Z,13.72
2022-10-05T19:29:07.103Z,13.69
2022-10-05T19:34:28.439Z,13.69
2022-10-05T19:39:46.634Z,13.69
2022-10-05T19:44:52.542Z,13.66
2022-10-05T19:49:57.907Z,13.63
2022-10-05T19:55:25.175Z,13.58
2022-10-05T20:00:31.404Z,13.53
2022-10-05T20:05:34.362Z,13.50
2022-10-05T20:10:37.261Z,13.47
2022-10-05T20:15:58.451Z,13.45
2022-10-05T20:21:01.244Z,13.43
2022-10-05T20:26:22.566Z,13.40
2022-10-05T20:31:25.300Z,13.39
2022-10-05T20:36:28.133Z,13.36
2022-10-05T20:41:30.840Z,13.35
2022-10-05T20:46:34.512Z,13.38
2022-10-05T20:51:40.282Z,13.38
2022-10-05T20:56:43.127Z,13.36
2022-10-05T21:01:49.417Z,13.34
2022-10-05T21:06:53.043Z,13.33
2022-10-05T21:11:56.295Z,13.32
2022-10-05T21:16:59.041Z,13.29
2022-10-05T21:22:02.578Z,13.24
2022-10-05T21:27:06.131Z,13.23
2022-10-05T21:32:11.785Z,13.22
2022-10-05T21:37:15.489Z,13.20
2022-10-05T21:42:18.146Z,13.17
2022-10-05T21:47:20.863Z,13.17
2022-10-05T21:52:23.543Z,13.13
2022-10-05T21:57:26.354Z,13.09
2022-10-05T22:02:29.077Z,13.05
2022-10-05T22:07:32.173Z,13.02
2022-10-05T22:12:35.075Z,12.99
2022-10-05T22:17:37.887Z,12.97
2022-10-05T22:22:40.602Z,12.93
2022-10-05T22:27:43.579Z,12.92
2022-10-05T22:32:46.257Z,12.91
2022-10-05T22:37:48.938Z,12.89
2022-10-05T22:42:53.238Z,12.86
2022-10-05T22:47:56.226Z,12.86
2022-10-05T22:52:58.919Z,12.83
2022-10-05T22:58:01.818Z,12.80
2022-10-05T23:03:04.505Z,12.79
2022-10-05T23:08:07.199Z,12.78
2022-10-05T23:13:09.913Z,12.76
2022-10-05T23:18:12.597Z,12.73
2022-10-05T23:23:15.311Z,12.70
2022-10-05T23:28:18.053Z,12.67
2022-10-05T23:33:21.015Z,12.67
2022-10-05T23:38:23.713Z,12.67
2022-10-05T23:43:27.427Z,12.64
2022-10-05T23:48:31.515Z,12.61
2022-10-05T23:53:35.222Z,12.59
2022-10-05T23:58:38.091Z,12.58
